Time;durP1;ratioP1;P1;durP2;ratioP2;P2;SDS_P1;SDS_P2;PMS_P1;PMS_P2;Temp;Humidity;BMP_temperature;BMP_pressure;BME280_temperature;BME280_humidity;BME280_pressure;Samples;Min_cycle;Max_cycle;Signal;HPM_P1;HPM_P2
2021/12/26 00:00:55;;;;;;;24.93;17.67;;;4.50;99.90;;;5.11;100.00;96897.69;5222091;28;20203;-60
2021/12/26 00:03:31;;;;;;;29.37;17.93;;;4.50;99.90;;;5.10;100.00;96901.88;5222322;28;20220;-61
2021/12/26 00:06:07;;;;;;;30.90;18.73;;;4.50;99.90;;;5.15;100.00;96892.03;5221883;28;20828;-60
2021/12/26 00:08:43;;;;;;;27.80;17.77;;;4.50;99.90;;;5.18;100.00;96904.91;5223209;28;20195;-61
2021/12/26 00:11:17;;;;;;;25.47;18.00;;;4.50;99.90;;;5.08;100.00;96903.44;5224066;28;20224;-62
2021/12/26 00:13:53;;;;;;;23.63;17.20;;;4.40;99.90;;;5.11;100.00;96902.75;5222329;28;20212;-61
2021/12/26 00:16:26;;;;;;;27.20;19.07;;;4.50;99.90;;;5.14;100.00;96902.94;5221638;28;20224;-62
2021/12/26 00:19:03;;;;;;;22.53;17.60;;;4.40;99.90;;;5.13;100.00;96901.22;5221572;28;20575;-61
2021/12/26 00:21:37;;;;;;;27.27;19.23;;;4.40;99.90;;;5.10;100.00;96906.09;5222177;28;20205;-61
2021/12/26 00:24:10;;;;;;;25.50;18.27;;;4.50;99.90;;;5.12;100.00;96904.50;5223470;28;20197;-60
2021/12/26 00:26:44;;;;;;;24.77;17.47;;;4.40;99.90;;;5.11;100.00;96902.75;5224304;28;20214;-61
2021/12/26 00:29:18;;;;;;;27.63;18.83;;;4.50;99.90;;;5.11;100.00;96903.63;5220620;28;20657;-59
2021/12/26 00:31:51;;;;;;;27.67;19.77;;;4.40;99.90;;;5.09;100.00;96899.25;5227338;28;20220;-62
2021/12/26 00:34:24;;;;;;;24.97;18.77;;;4.40;99.90;;;5.04;100.00;96895.56;5220423;28;20650;-62
2021/12/26 00:36:57;;;;;;;25.10;18.17;;;4.50;99.90;;;5.02;100.00;96897.13;5224271;28;20213;-62
2021/12/26 00:39:30;;;;;;;32.87;20.00;;;4.40;99.90;;;5.09;100.00;96902.66;5224326;28;20206;-62
2021/12/26 00:42:05;;;;;;;33.27;20.50;;;4.50;99.90;;;5.10;100.00;96898.50;5222689;28;20657;-62
2021/12/26 00:44:40;;;;;;;29.73;19.70;;;4.50;99.90;;;5.10;100.00;96901.03;5221883;28;20189;-62
2021/12/26 00:47:14;;;;;;;27.47;17.83;;;4.50;99.90;;;5.13;100.00;96896.13;5223809;28;20221;-61
2021/12/26 00:49:47;;;;;;;24.43;17.27;;;4.60;99.90;;;5.10;100.00;96896.81;5219891;28;20284;-62
2021/12/26 00:52:21;;;;;;;25.93;18.00;;;4.40;99.90;;;5.09;100.00;96899.25;5223168;28;20231;-62
2021/12/26 00:54:54;;;;;;;26.47;18.03;;;4.40;99.90;;;5.04;100.00;96895.56;5221901;28;20301;-62
2021/12/26 00:57:27;;;;;;;24.07;17.17;;;4.40;99.90;;;5.05;100.00;96899.84;5223328;28;20233;-62
2021/12/26 01:00:04;;;;;;;21.43;15.77;;;4.40;99.90;;;4.99;100.00;96900.34;5221245;28;20208;-62
2021/12/26 01:02:37;;;;;;;22.27;16.27;;;4.40;99.90;;;5.00;100.00;96893.63;5222391;28;20193;-62
2021/12/26 01:05:11;;;;;;;23.30;15.70;;;4.40;99.90;;;5.01;100.00;96895.34;5221647;28;20205;-62
2021/12/26 01:07:55;;;;;;;17.30;13.87;;;4.40;99.90;;;5.03;100.00;96893.81;5222587;28;20197;-62
2021/12/26 01:10:35;;;;;;;18.13;14.17;;;4.40;99.90;;;5.08;100.00;96892.44;5222354;28;20227;-62
2021/12/26 01:13:16;;;;;;;18.87;14.63;;;4.50;99.90;;;5.10;100.00;96890.88;5222589;28;20219;-62
2021/12/26 01:15:55;;;;;;;25.63;17.03;;;4.50;99.90;;;5.14;100.00;96885.22;5222059;28;20225;-62
2021/12/26 01:18:31;;;;;;;24.57;16.57;;;4.40;99.90;;;5.14;100.00;96892.81;5220606;28;20201;-62
2021/12/26 01:21:16;;;;;;;26.50;16.10;;;4.40;99.90;;;5.17;100.00;96898.06;5219852;28;20223;-62
2021/12/26 01:23:53;;;;;;;22.30;16.30;;;4.50;99.90;;;5.08;100.00;96892.44;5220618;28;20763;-62
2021/12/26 01:26:28;;;;;;;24.13;16.17;;;4.40;99.90;;;5.08;100.00;96889.91;5220987;28;20221;-62
2021/12/26 01:29:02;;;;;;;21.63;15.83;;;4.40;99.90;;;5.03;100.00;96888.75;5222301;28;20597;-62
2021/12/26 01:31:37;;;;;;;25.33;17.03;;;4.30;99.90;;;5.03;100.00;96893.81;5222913;28;20227;-62
2021/12/26 01:34:10;;;;;;;20.93;16.00;;;4.40;99.90;;;5.04;100.00;96900.63;5222170;28;20205;-62
2021/12/26 01:36:43;;;;;;;25.23;15.77;;;4.50;99.90;;;5.06;100.00;96899.94;5222199;28;20338;-62
2021/12/26 01:39:17;;;;;;;21.70;15.90;;;4.50;99.90;;;5.11;100.00;96901.09;5222838;28;20203;-62
2021/12/26 01:41:50;;;;;;;24.47;16.73;;;4.50;99.90;;;5.12;100.00;96902.88;5219066;28;20216;-62
2021/12/26 01:44:23;;;;;;;24.00;16.33;;;4.50;99.90;;;5.17;100.00;96908.19;5222453;28;20200;-62
2021/12/26 01:46:58;;;;;;;23.30;16.20;;;4.60;99.90;;;5.17;100.00;96903.13;5220640;28;20221;-62
2021/12/26 01:49:33;;;;;;;23.37;15.53;;;4.50;99.90;;;5.17;100.00;96905.66;5220966;28;20204;-62
2021/12/26 01:52:08;;;;;;;25.97;16.33;;;4.50;99.90;;;5.11;100.00;96912.88;5221844;28;20223;-62
2021/12/26 01:54:46;;;;;;;23.23;16.63;;;4.50;99.90;;;5.11;100.00;96912.88;5220284;28;20208;-62
2021/12/26 01:57:20;;;;;;;21.57;15.90;;;4.40;99.90;;;5.13;100.00;96911.34;5220987;28;20228;-62
2021/12/26 01:59:53;;;;;;;25.20;16.40;;;4.40;99.90;;;5.11;100.00;96912.88;5222221;28;20362;-62
2021/12/26 02:02:29;;;;;;;23.80;16.20;;;4.50;99.90;;;5.15;100.00;96919.88;5223031;28;20198;-62
2021/12/26 02:05:03;;;;;;;24.27;16.57;;;4.50;99.90;;;5.14;100.00;96913.94;5221661;28;20292;-62
2021/12/26 02:07:36;;;;;;;26.40;17.23;;;4.40;99.90;;;5.10;100.00;96918.75;5221121;28;22175;-62
2021/12/26 02:10:09;;;;;;;22.00;15.70;;;4.50;99.90;;;5.11;100.00;96911.22;5222496;28;20198;-61
2021/12/26 02:12:43;;;;;;;24.33;15.97;;;4.50;99.90;;;5.13;100.00;96911.34;5220953;28;20572;-62
2021/12/26 02:15:16;;;;;;;24.03;17.60;;;4.40;99.90;;;5.12;100.00;96915.53;5220207;28;20197;-63
2021/12/26 02:17:51;;;;;;;21.67;16.30;;;4.40;99.90;;;5.15;100.00;96917.34;5222121;28;20671;-62
2021/12/26 02:20:36;;;;;;;24.07;15.90;;;4.50;99.90;;;5.18;100.00;96913.38;5220565;28;20204;-62
2021/12/26 02:23:14;;;;;;;20.23;16.10;;;4.50;99.90;;;5.14;100.00;96913.06;5221508;28;20196;-62
2021/12/26 02:28:34;;;;;;;20.83;15.47;;;4.40;99.90;;;5.11;100.00;96907.81;5193522;28;20904;-62
2021/12/26 02:31:08;;;;;;;22.13;15.03;;;4.40;99.90;;;5.11;100.00;96903.63;5222009;28;20672;-62
2021/12/26 02:33:42;;;;;;;22.03;14.97;;;4.40;99.90;;;5.12;100.00;96909.56;5220180;28;20217;-62
2021/12/26 02:36:16;;;;;;;19.77;14.33;;;4.50;99.90;;;5.11;100.00;96905.28;5221797;28;20780;-62
2021/12/26 02:38:50;;;;;;;18.40;14.13;;;4.50;99.90;;;5.15;100.00;96907.22;5220095;28;20201;-62
2021/12/26 02:41:23;;;;;;;20.80;15.30;;;4.50;99.90;;;5.20;100.00;96903.31;5220894;28;20571;-62
2021/12/26 02:43:56;;;;;;;20.27;15.43;;;4.50;99.90;;;5.15;100.00;96903.06;5220378;28;20200;-62
2021/12/26 02:46:30;;;;;;;19.47;14.57;;;4.50;99.90;;;5.16;100.00;96901.41;5222767;28;20600;-62
2021/12/26 02:49:03;;;;;;;20.90;15.10;;;4.50;99.90;;;5.17;100.00;96900.59;5220495;28;20204;-62
2021/12/26 02:51:38;;;;;;;18.57;13.80;;;4.50;99.90;;;5.13;100.00;96899.53;5221980;28;20201;-62
2021/12/26 02:54:11;;;;;;;20.63;13.47;;;4.40;99.90;;;5.14;100.00;96896.22;5220488;28;20228;-62
2021/12/26 02:56:45;;;;;;;17.27;13.87;;;4.30;99.90;;;5.09;100.00;96896.72;5220220;28;20225;-62
2021/12/26 02:59:19;;;;;;;17.83;13.60;;;4.30;99.90;;;5.08;100.00;96898.38;5225254;28;20205;-62
2021/12/26 03:01:52;;;;;;;16.63;12.67;;;4.30;99.90;;;5.05;100.00;96893.13;5225237;28;20201;-62
2021/12/26 03:04:25;;;;;;;19.40;14.13;;;4.30;99.90;;;5.08;100.00;96900.03;5224784;28;20189;-62
2021/12/26 03:07:02;;;;;;;16.80;13.40;;;4.40;99.90;;;5.05;100.00;96897.31;5224699;28;20231;-62
2021/12/26 03:09:44;;;;;;;17.70;12.37;;;4.30;99.90;;;5.09;100.00;96899.25;5225481;28;20196;-62
2021/12/26 03:12:17;;;;;;;17.50;13.63;;;4.40;99.90;;;5.13;100.00;96897.00;5226021;28;20217;-61
2021/12/26 03:14:50;;;;;;;16.47;13.40;;;4.40;99.90;;;5.06;100.00;96901.59;5223935;28;20202;-61
2021/12/26 03:17:24;;;;;;;17.33;12.80;;;4.30;99.90;;;5.08;100.00;96902.56;5224561;28;20684;-62
2021/12/26 03:19:57;;;;;;;17.27;12.87;;;4.30;99.90;;;5.02;100.00;96897.13;5223880;28;20704;-62
2021/12/26 03:22:31;;;;;;;13.70;11.60;;;4.30;99.90;;;5.05;100.00;96892.25;5222854;28;20205;-62
2021/12/26 03:25:08;;;;;;;16.97;13.47;;;4.30;99.90;;;5.01;100.00;96895.34;5223245;28;20197;-62
2021/12/26 03:27:41;;;;;;;14.30;12.50;;;4.30;99.90;;;5.01;100.00;96902.94;5224535;28;20193;-62
2021/12/26 03:30:18;;;;;;;15.07;12.40;;;4.30;99.90;;;5.09;100.00;96901.78;5223336;28;20205;-62
2021/12/26 03:33:00;;;;;;;14.03;11.13;;;4.40;99.90;;;5.13;100.00;96902.06;5222121;28;20271;-62
2021/12/26 03:35:34;;;;;;;16.60;12.17;;;4.40;99.90;;;5.13;100.00;96903.75;5222992;28;20243;-62
2021/12/26 03:38:11;;;;;;;14.80;12.07;;;4.40;99.90;;;5.16;100.00;96907.34;5224427;28;20204;-62
2021/12/26 03:40:46;;;;;;;16.60;12.13;;;4.40;99.90;;;5.18;100.00;96908.31;5224454;28;20197;-62
2021/12/26 03:43:21;;;;;;;15.97;12.63;;;4.50;99.90;;;5.20;100.00;96916.00;5223779;28;20204;-62
2021/12/26 03:45:55;;;;;;;15.00;12.23;;;4.50;99.90;;;5.18;100.00;96915.03;5222928;28;20219;-62
2021/12/26 03:48:29;;;;;;;13.77;11.13;;;4.50;99.90;;;5.20;100.00;96909.25;5225029;28;20669;-62
2021/12/26 03:51:04;;;;;;;15.87;12.33;;;4.50;99.90;;;5.23;100.00;96915.31;5222858;28;20201;-62
2021/12/26 03:53:38;;;;;;;15.33;11.90;;;4.50;99.90;;;5.24;100.00;96914.53;5224447;28;20224;-62
2021/12/26 03:56:11;;;;;;;16.63;11.77;;;4.50;99.90;;;5.24;100.00;96915.41;5245685;22;20223;-64
2021/12/26 03:58:44;;;;;;;16.27;12.50;;;4.50;99.90;;;5.26;100.00;96918.91;5264038;28;20567;-61
2021/12/26 04:01:18;;;;;;;15.37;11.87;;;4.50;99.90;;;5.28;100.00;96913.94;5265116;28;20192;-62
2021/12/26 04:03:51;;;;;;;16.27;12.60;;;4.40;99.90;;;5.24;100.00;96915.41;5264703;28;20196;-61
2021/12/26 04:06:25;;;;;;;16.93;13.13;;;4.50;99.90;;;5.24;100.00;96914.53;5266432;28;20212;-61
2021/12/26 04:08:59;;;;;;;18.57;13.03;;;4.50;99.90;;;5.23;100.00;96908.56;5264352;28;20204;-62
2021/12/26 04:11:32;;;;;;;14.50;11.37;;;4.50;99.90;;;5.24;100.00;96915.41;5266458;28;20195;-61
2021/12/26 04:14:06;;;;;;;17.23;12.67;;;4.40;99.90;;;5.23;100.00;96911.09;5263916;28;20224;-60
2021/12/26 04:16:39;;;;;;;17.47;12.57;;;4.40;99.90;;;5.18;100.00;96907.44;5265758;28;20234;-61
2021/12/26 04:19:12;;;;;;;17.10;13.60;;;4.40;99.90;;;5.14;100.00;96910.53;5264543;28;20196;-60
2021/12/26 04:21:45;;;;;;;18.17;14.03;;;4.40;99.90;;;5.13;100.00;96906.28;5265597;28;20678;-61
2021/12/26 04:24:19;;;;;;;19.20;13.90;;;4.50;99.90;;;5.11;100.00;96911.22;5264634;28;20192;-60
2021/12/26 04:26:52;;;;;;;18.57;12.83;;;4.40;99.90;;;5.10;100.00;96909.47;5264027;28;20219;-60
2021/12/26 04:29:25;;;;;;;18.53;13.73;;;4.40;99.90;;;5.11;100.00;96907.81;5265260;28;20207;-61
2021/12/26 04:31:58;;;;;;;17.77;13.33;;;4.40;99.90;;;5.07;100.00;96911.84;5264748;28;20196;-58
2021/12/26 04:34:32;;;;;;;19.80;12.83;;;4.40;99.90;;;5.09;100.00;96915.31;5263913;28;20219;-62
2021/12/26 04:37:05;;;;;;;21.67;14.57;;;4.40;99.90;;;5.10;100.00;96917.09;5263878;28;20219;-63
2021/12/26 04:39:40;;;;;;;23.97;14.47;;;4.50;99.90;;;5.11;100.00;96913.75;5265437;28;20206;-63
2021/12/26 04:42:13;;;;;;;18.00;13.67;;;4.50;99.90;;;5.12;100.00;96914.63;5265532;28;20581;-59
2021/12/26 04:44:47;;;;;;;20.37;13.67;;;4.50;99.90;;;5.09;100.00;96909.38;5265250;28;20543;-63
2021/12/26 04:47:21;;;;;;;17.30;13.67;;;4.30;99.90;;;5.05;100.00;96912.50;5265373;28;20307;-63
2021/12/26 04:49:54;;;;;;;17.40;13.50;;;4.40;99.90;;;5.05;100.00;96920.97;5264849;28;20203;-66
2021/12/26 04:52:27;;;;;;;20.30;14.27;;;4.30;99.90;;;5.04;100.00;96910.78;5261404;28;20196;-64
2021/12/26 04:55:02;;;;;;;19.77;13.43;;;4.40;99.90;;;4.97;100.00;96905.28;5260092;28;20592;-62
2021/12/26 04:57:35;;;;;;;17.60;12.93;;;4.30;99.90;;;5.03;100.00;96921.66;5265000;28;20667;-64
2021/12/26 05:00:12;;;;;;;17.77;13.73;;;4.30;99.90;;;5.05;100.00;96923.50;5259896;28;20647;-61
2021/12/26 05:02:46;;;;;;;20.63;13.50;;;4.30;99.90;;;5.05;100.00;96927.69;5265328;28;20204;-65
2021/12/26 05:05:20;;;;;;;17.37;13.07;;;4.40;99.90;;;5.03;100.00;96922.53;5264099;28;20275;-61
2021/12/26 05:07:54;;;;;;;16.87;11.70;;;4.40;99.90;;;5.06;100.00;96920.19;5264986;28;20683;-59
2021/12/26 05:10:29;;;;;;;20.23;13.93;;;4.40;99.90;;;5.05;100.00;96920.97;5265658;28;20202;-61
2021/12/26 05:13:04;;;;;;;16.50;12.67;;;4.40;99.90;;;5.10;100.00;96918.75;5264055;28;20207;-61
2021/12/26 05:15:38;;;;;;;19.70;13.57;;;4.40;99.90;;;5.11;100.00;96923.03;5263613;28;20299;-63
2021/12/26 05:18:11;;;;;;;17.87;12.67;;;4.40;99.90;;;5.12;100.00;96919.69;5262488;28;20207;-61
2021/12/26 05:20:45;;;;;;;20.23;14.50;;;4.40;99.90;;;5.20;100.00;96918.53;5262603;28;20674;-60
2021/12/26 05:23:18;;;;;;;18.53;14.40;;;4.40;99.90;;;5.16;100.00;96917.47;5260554;28;20563;-60
2021/12/26 05:25:53;;;;;;;17.93;14.00;;;4.40;99.90;;;5.13;100.00;96926.53;5262011;28;20214;-62
2021/12/26 05:28:26;;;;;;;20.67;13.97;;;4.40;99.90;;;5.11;100.00;96920.50;5261875;28;20295;-61
2021/12/26 05:30:59;;;;;;;18.00;13.43;;;4.40;99.90;;;5.11;100.00;96915.41;5262085;28;20196;-60
2021/12/26 05:33:32;;;;;;;19.40;12.93;;;4.40;99.90;;;5.16;100.00;96916.59;5263479;28;20220;-61
2021/12/26 05:36:06;;;;;;;18.63;12.97;;;4.40;99.90;;;5.15;100.00;96915.72;5263277;28;20555;-60
2021/12/26 05:38:39;;;;;;;20.03;14.70;;;4.30;99.90;;;5.18;100.00;96912.50;5258465;28;20207;-61
2021/12/26 05:41:14;;;;;;;21.87;15.40;;;4.30;99.90;;;5.07;100.00;96913.50;5263617;28;20648;-61
2021/12/26 05:43:47;;;;;;;23.77;14.93;;;4.30;99.90;;;5.05;100.00;96917.56;5263381;28;20209;-61
2021/12/26 05:46:20;;;;;;;20.43;13.70;;;4.30;99.90;;;5.05;100.00;96918.44;5263673;28;20226;-61
2021/12/26 05:48:53;;;;;;;24.80;15.60;;;4.30;99.90;;;5.10;100.00;96913.69;5263067;28;20196;-61
2021/12/26 05:51:28;;;;;;;22.27;16.13;;;4.40;99.90;;;5.03;100.00;96919.13;5260793;28;20713;-61
2021/12/26 05:54:01;;;;;;;22.23;15.73;;;4.30;99.90;;;5.01;100.00;96916.50;5262685;28;20219;-61
2021/12/26 05:56:36;;;;;;;21.73;15.57;;;4.30;99.90;;;4.97;100.00;96923.03;5259999;28;20228;-61
2021/12/26 05:59:09;;;;;;;23.57;16.10;;;4.20;99.90;;;4.92;100.00;96919.34;5261911;28;20195;-62
2021/12/26 06:01:42;;;;;;;23.50;16.10;;;4.20;99.90;;;5.02;100.00;96923.31;5263963;28;20201;-61
2021/12/26 06:04:15;;;;;;;24.40;16.10;;;4.30;99.90;;;4.98;100.00;96926.47;5260530;28;20220;-62
2021/12/26 06:06:49;;;;;;;25.63;17.23;;;4.30;99.90;;;4.96;100.00;96923.81;5260582;28;20751;-61
2021/12/26 06:09:22;;;;;;;22.67;15.33;;;4.20;99.90;;;4.93;100.00;96928.69;5262143;28;20200;-62
2021/12/26 06:11:56;;;;;;;26.70;16.77;;;4.20;99.90;;;4.91;100.00;96920.09;5262673;28;20200;-61
2021/12/26 06:14:29;;;;;;;26.27;16.80;;;4.20;99.90;;;4.93;100.00;96923.63;5263638;28;20238;-61
2021/12/26 06:17:03;;;;;;;24.90;17.10;;;4.30;99.90;;;4.95;100.00;96911.94;5261818;28;20681;-61
2021/12/26 06:19:36;;;;;;;24.13;16.50;;;4.20;99.90;;;4.92;100.00;96921.88;5262389;28;20200;-61
2021/12/26 06:22:09;;;;;;;23.77;16.90;;;4.20;99.90;;;4.87;100.00;96917.31;5262832;28;20192;-61
2021/12/26 06:24:42;;;;;;;28.57;18.07;;;4.10;99.90;;;4.97;100.00;96928.09;5260004;28;20194;-61
2021/12/26 06:27:17;;;;;;;23.20;16.77;;;4.20;99.90;;;4.96;100.00;96918.75;5262684;28;20230;-61
2021/12/26 06:29:50;;;;;;;21.17;16.83;;;4.10;99.90;;;4.93;100.00;96917.69;5260537;28;20206;-60
2021/12/26 06:32:23;;;;;;;27.10;17.67;;;4.00;99.90;;;4.79;100.00;96915.94;5267073;28;20203;-64
2021/12/26 06:34:56;;;;;;;24.90;18.33;;;4.00;99.90;;;4.81;100.00;96920.31;5265374;28;20585;-61
2021/12/26 06:37:29;;;;;;;25.80;17.40;;;4.00;99.90;;;4.85;100.00;96916.31;5266962;28;20223;-62
2021/12/26 06:40:04;;;;;;;26.13;17.67;;;4.10;99.90;;;4.85;100.00;96914.66;5265975;28;20282;-61
2021/12/26 06:42:41;;;;;;;26.23;17.50;;;4.00;99.90;;;4.89;100.00;96919.16;5267992;28;20302;-61
2021/12/26 06:45:18;;;;;;;27.97;18.87;;;4.00;99.90;;;4.70;100.00;96918.75;5267124;28;20210;-62
2021/12/26 06:47:54;;;;;;;28.47;18.53;;;4.00;99.90;;;4.65;100.00;96925.16;5265268;28;20231;-61
2021/12/26 06:50:27;;;;;;;25.47;17.07;;;4.00;99.90;;;4.64;100.00;96926.84;5267252;28;20207;-60
2021/12/26 06:53:00;;;;;;;28.00;18.17;;;3.90;99.90;;;4.66;100.00;96927.78;5267633;28;20200;-63
2021/12/26 06:55:33;;;;;;;31.33;21.23;;;4.10;99.90;;;4.59;100.00;96929.84;5266258;28;20217;-62
2021/12/26 06:58:08;;;;;;;28.60;19.20;;;4.00;99.90;;;4.61;100.00;96933.34;5265696;28;20204;-61
2021/12/26 07:00:42;;;;;;;30.87;20.97;;;3.90;99.90;;;4.63;100.00;96942.78;5267006;28;20196;-58
2021/12/26 07:03:16;;;;;;;30.20;20.97;;;4.00;99.90;;;4.68;100.00;96943.94;5264719;28;20199;-61
2021/12/26 07:05:49;;;;;;;31.30;21.07;;;4.00;99.90;;;4.69;100.00;96939.75;5265818;28;20196;-61
2021/12/26 07:08:22;;;;;;;27.57;19.43;;;4.10;99.90;;;4.69;100.00;96947.34;5266682;28;20192;-62
2021/12/26 07:10:55;;;;;;;27.37;18.20;;;4.00;99.90;;;4.73;100.00;96941.72;5267480;28;20196;-63
2021/12/26 07:13:30;;;;;;;30.77;20.00;;;4.00;99.90;;;4.78;100.00;96947.97;5267173;28;20538;-63
2021/12/26 07:16:04;;;;;;;30.43;19.90;;;4.00;99.90;;;4.83;100.00;96950.78;5266579;28;20253;-61
2021/12/26 07:18:37;;;;;;;31.70;18.80;;;4.00;99.90;;;4.76;100.00;96953.72;5265533;28;20201;-63
2021/12/26 07:21:10;;;;;;;32.00;20.30;;;4.00;99.90;;;4.72;100.00;96962.72;5266407;28;20202;-61
2021/12/26 07:23:43;;;;;;;25.83;18.23;;;4.00;99.90;;;4.75;100.00;96957.91;5264220;28;20196;-64
2021/12/26 07:26:16;;;;;;;31.43;19.60;;;4.00;99.90;;;4.74;100.00;96971.31;5265501;28;20584;-62
2021/12/26 07:28:51;;;;;;;29.03;18.73;;;4.00;99.90;;;4.77;100.00;96961.38;5266564;28;20681;-63
2021/12/26 07:31:25;;;;;;;28.50;18.53;;;4.10;99.90;;;4.77;100.00;96966.44;5264684;28;20643;-63
2021/12/26 07:33:58;;;;;;;34.00;19.63;;;4.00;99.90;;;4.79;100.00;96964.91;5262720;28;20200;-63
2021/12/26 07:36:32;;;;;;;30.97;19.13;;;4.10;99.90;;;4.78;100.00;96962.25;5264553;28;20228;-63
2021/12/26 07:39:06;;;;;;;27.60;19.60;;;4.10;99.90;;;4.87;100.00;96962.88;5263819;28;20192;-64
2021/12/26 07:41:41;;;;;;;26.17;18.50;;;4.10;99.90;;;4.83;100.00;96961.78;5265455;28;20207;-62
2021/12/26 07:44:16;;;;;;;28.93;19.50;;;4.10;99.90;;;4.83;100.00;96956.72;5260541;28;20204;-64
2021/12/26 07:46:49;;;;;;;29.40;19.17;;;4.10;99.90;;;4.80;100.00;96961.56;5263673;28;20215;-63
2021/12/26 07:49:24;;;;;;;25.97;17.83;;;4.10;99.90;;;4.78;100.00;96963.16;5263389;28;20206;-63
2021/12/26 07:51:58;;;;;;;26.60;18.93;;;4.10;99.90;;;4.83;100.00;96966.84;5266488;28;20692;-65
2021/12/26 07:54:31;;;;;;;32.90;21.40;;;4.10;99.90;;;4.78;100.00;96968.22;5265560;28;20206;-63
2021/12/26 07:57:06;;;;;;;28.87;18.60;;;4.10;99.90;;;4.78;100.00;96972.38;5265749;28;20224;-63
2021/12/26 07:59:41;;;;;;;24.67;17.40;;;4.10;99.90;;;4.83;100.00;96971.03;5263819;28;20195;-64
2021/12/26 08:02:20;;;;;;;28.70;18.57;;;4.20;99.90;;;4.92;100.00;96967.44;5263381;28;20658;-65
2021/12/26 08:04:53;;;;;;;34.30;19.93;;;4.30;99.90;;;5.00;100.00;96969.56;5264104;28;20198;-63
2021/12/26 08:07:26;;;;;;;31.27;18.53;;;4.30;99.90;;;5.00;100.00;96967.03;5265632;28;20804;-61
2021/12/26 08:09:59;;;;;;;29.60;19.23;;;4.40;99.90;;;5.05;100.00;96973.28;5266049;28;20200;-62
2021/12/26 08:12:33;;;;;;;23.53;16.73;;;4.40;99.90;;;5.07;100.00;96976.81;5265848;28;20291;-62
2021/12/26 08:15:08;;;;;;;25.83;18.33;;;4.40;99.90;;;5.13;100.00;96972.13;5262796;28;20282;-68
2021/12/26 08:17:41;;;;;;;24.03;17.90;;;4.50;99.90;;;5.16;100.00;96979.91;5265075;28;20215;-63
2021/12/26 08:20:15;;;;;;;28.70;19.97;;;4.50;99.90;;;5.16;100.00;96978.25;5260122;28;20197;-65
2021/12/26 08:22:48;;;;;;;26.20;18.67;;;4.40;99.90;;;5.13;100.00;96972.13;5261769;28;20192;-62
2021/12/26 08:25:21;;;;;;;27.57;17.23;;;4.40;99.90;;;5.12;100.00;96985.53;5261661;28;20214;-62
2021/12/26 08:27:54;;;;;;;23.40;17.33;;;4.50;99.90;;;5.16;100.00;96983.31;5264533;28;20216;-61
2021/12/26 08:30:30;;;;;;;25.90;18.27;;;4.50;99.90;;;5.17;100.00;96986.72;5266641;28;20207;-63
2021/12/26 08:33:06;;;;;;;21.10;15.23;;;4.50;99.90;;;5.20;100.00;96976.78;5261193;28;20196;-63
2021/12/26 08:35:41;;;;;;;22.67;16.27;;;4.60;99.90;;;5.28;100.00;96978.16;5263091;28;20215;-63
2021/12/26 08:38:20;;;;;;;21.30;14.97;;;4.60;99.90;;;5.30;100.00;96981.66;5265976;28;20202;-60
2021/12/26 08:40:57;;;;;;;15.70;12.93;;;4.60;99.90;;;5.35;100.00;96990.44;5265538;28;20187;-63
2021/12/26 08:43:30;;;;;;;15.07;11.80;;;4.60;99.90;;;5.34;100.00;96983.59;5262741;28;20202;-63
2021/12/26 08:46:05;;;;;;;15.33;11.50;;;4.60;99.90;;;5.32;100.00;96982.63;5256676;28;20219;-63
2021/12/26 08:48:38;;;;;;;16.10;12.20;;;4.60;99.90;;;5.42;100.00;96989.16;5263186;28;20195;-63
2021/12/26 08:51:11;;;;;;;14.43;11.80;;;4.70;99.90;;;5.40;100.00;96978.03;5261114;28;20208;-63
2021/12/26 08:53:44;;;;;;;16.57;12.00;;;4.60;99.90;;;5.43;100.00;96981.63;5261979;28;20200;-64
2021/12/26 08:56:17;;;;;;;16.30;13.13;;;4.60;99.90;;;5.38;100.00;96977.94;5265564;28;20698;-66
2021/12/26 08:58:50;;;;;;;14.93;11.23;;;4.70;99.90;;;5.39;100.00;96987.28;5264745;28;20203;-63
2021/12/26 09:01:24;;;;;;;12.83;11.07;;;4.70;99.90;;;5.40;100.00;96980.56;5265779;28;20202;-63
2021/12/26 09:03:58;;;;;;;14.97;11.93;;;4.70;99.90;;;5.36;100.00;96986.22;5262377;28;20196;-65
2021/12/26 09:06:31;;;;;;;14.60;11.30;;;4.60;99.90;;;5.46;100.00;96995.28;5260759;28;20247;-64
2021/12/26 09:09:05;;;;;;;13.53;11.63;;;4.70;99.90;;;5.50;100.00;96994.69;5262173;28;20200;-63
2021/12/26 09:11:38;;;;;;;14.33;11.80;;;4.70;99.90;;;5.51;100.00;96986.31;5263419;28;20443;-64
2021/12/26 09:14:11;;;;;;;12.73;10.43;;;4.70;99.90;;;5.48;100.00;96991.19;5264588;28;20579;-64
2021/12/26 09:16:46;;;;;;;12.60;11.30;;;4.70;99.90;;;5.61;100.00;96992.06;5261236;28;20706;-63
2021/12/26 09:19:19;;;;;;;11.50;10.33;;;4.80;99.90;;;5.50;100.00;96993.03;5264461;28;20201;-65
2021/12/26 09:21:52;;;;;;;12.70;11.27;;;4.70;99.90;;;5.46;100.00;96992.75;5262337;28;20192;-62
2021/12/26 09:24:26;;;;;;;10.90;9.80;;;4.70;99.90;;;5.48;100.00;96989.53;5263157;28;20235;-61
2021/12/26 09:26:59;;;;;;;11.23;10.00;;;4.80;99.90;;;5.54;100.00;96999.16;5259989;28;20216;-62
2021/12/26 09:29:32;;;;;;;12.47;10.73;;;4.80;99.90;;;5.57;100.00;96997.69;5260717;28;20200;-64
2021/12/26 09:32:08;;;;;;;11.73;10.20;;;4.80;99.90;;;5.63;100.00;96999.72;5263111;28;20212;-63
2021/12/26 09:34:41;;;;;;;12.47;10.30;;;4.90;99.90;;;5.64;100.00;96993.91;5256958;28;20198;-66
2021/12/26 09:37:15;;;;;;;12.07;10.20;;;4.80;99.90;;;5.58;100.00;97003.63;5263920;28;20220;-64
2021/12/26 09:39:48;;;;;;;11.50;10.30;;;4.80;99.90;;;5.67;100.00;97004.22;5261329;28;20651;-65
2021/12/26 09:42:24;;;;;;;12.30;10.23;;;5.00;99.90;;;5.74;100.00;97002.94;5261282;28;20210;-60
2021/12/26 09:44:58;;;;;;;10.37;9.17;;;5.00;99.90;;;5.80;100.00;97006.72;5260211;28;20578;-62
2021/12/26 09:47:33;;;;;;;11.80;10.60;;;5.00;99.90;;;5.83;100.00;97011.97;5264999;28;20223;-64
2021/12/26 09:50:08;;;;;;;12.70;10.00;;;5.00;99.90;;;5.85;100.00;97005.34;5260351;28;20580;-64
2021/12/26 09:52:43;;;;;;;12.27;10.73;;;5.10;99.90;;;5.76;100.00;97004.78;5263773;28;20199;-63
2021/12/26 09:55:17;;;;;;;14.40;10.60;;;5.10;99.90;;;5.80;100.00;97006.72;5259354;28;20199;-63
2021/12/26 09:57:50;;;;;;;12.30;10.47;;;5.10;99.90;;;5.90;100.00;96998.03;5256382;28;20247;-63
2021/12/26 10:00:27;;;;;;;11.27;9.97;;;5.10;99.90;;;5.88;100.00;97000.47;5260091;28;20229;-64
2021/12/26 10:03:16;;;;;;;13.07;10.73;;;5.20;99.90;;;6.04;100.00;97003.97;5261341;28;20191;-63
2021/12/26 10:06:02;;;;;;;11.50;9.83;;;5.20;99.90;;;6.05;100.00;96998.09;5260211;28;20284;-67
2021/12/26 10:08:54;;;;;;;13.23;10.00;;;5.30;99.90;;;6.15;100.00;96995.31;5263804;28;20214;-64
2021/12/26 10:11:29;;;;;;;10.83;9.70;;;5.30;99.90;;;6.14;100.00;96990.16;5261100;28;20196;-64
2021/12/26 10:14:07;;;;;;;10.67;9.57;;;5.30;99.90;;;6.20;100.00;96986.31;5257772;28;20214;-65
2021/12/26 10:16:43;;;;;;;11.00;9.23;;;5.40;99.90;;;6.26;100.00;96980.75;5260926;28;20233;-64
2021/12/26 10:19:18;;;;;;;9.73;8.73;;;5.50;99.90;;;6.15;100.00;96980.09;5261556;28;20601;-64
2021/12/26 10:21:53;;;;;;;10.27;9.27;;;5.40;99.90;;;6.25;100.00;96976.47;5262833;28;20679;-64
2021/12/26 10:24:28;;;;;;;10.13;9.13;;;5.40;99.90;;;6.30;100.00;96975.94;5262106;28;20195;-63
2021/12/26 10:27:05;;;;;;;10.47;9.17;;;5.40;99.90;;;6.30;100.00;96975.94;5258275;28;20218;-64
2021/12/26 10:29:41;;;;;;;10.53;9.23;;;5.40;99.90;;;6.39;100.00;96969.66;5261722;28;20196;-64
2021/12/26 10:32:18;;;;;;;10.83;9.60;;;5.40;99.90;;;6.44;100.00;96966.63;5261574;28;20572;-64
2021/12/26 10:34:54;;;;;;;9.90;8.90;;;5.60;99.90;;;6.47;100.00;96969.31;5258200;28;20572;-64
2021/12/26 10:37:33;;;;;;;10.00;9.10;;;5.60;99.90;;;6.49;100.00;96964.31;5260266;28;20305;-64
2021/12/26 10:40:11;;;;;;;10.57;8.67;;;5.60;99.90;;;6.55;100.00;96954.50;5262974;28;20198;-64
2021/12/26 10:42:47;;;;;;;9.03;8.13;;;5.70;99.90;;;6.66;100.00;96944.97;5260010;28;20214;-64
2021/12/26 10:45:28;;;;;;;10.57;9.53;;;5.80;99.90;;;6.71;100.00;96949.53;5262593;28;20188;-65